Stations météo

réclame
Mon MeteoGroup
Faaroesund-ar, Suède (2587): Température de l'air & dewpoint: 12.02.2019 19:00:00 - 18.02.2019 19:00:00 (CET)Faaroesund-ar, Suède (2587): Vitesse du vent & gusts: 12.02.2019 19:00:00 - 18.02.2019 19:00:00 (CET)Faaroesund-ar, Suède (2587): Direction du vent: 12.02.2019 19:00:00 - 18.02.2019 19:00:00 (CET)Faaroesund-ar, Suède (2587): visibility: 12.02.2019 19:00:00 - 18.02.2019 19:00:00 (CET)Faaroesund-ar, Suède (2587): Quantités de précipitations: 12.02.2019 19:00:00 - 18.02.2019 19:00:00 (CET)
Date & Time tt [°C] td [°C] ff [km/h] ff [knt] fx [km/h] fx [knt] dd vv [km] rr [mm]
18.02.2019 19:00:00 3,3 2,3 19 10 33 18 SSW 9 0,0
18.02.2019 18:00:00 3,2 2,2 18 10 42 23 S 12 0,0
18.02.2019 17:00:00 3,4 1,6 19 10 43 23 S 44 0,0
18.02.2019 16:00:00 4,8 1,3 24 13 43 23 S 50 0,0
18.02.2019 15:00:00 6,6 1,9 24 13 41 22 S 50 0,0
18.02.2019 14:00:00 7,0 2,1 24 13 37 20 S 50 0,0
18.02.2019 13:00:00 8,1 3,0 20 11 35 19 S 48 0,0
18.02.2019 12:00:00 7,6 3,5 21 11 35 19 S 43 0,0
18.02.2019 11:00:00 6,1 3,8 17 9 33 18 S 32 0,0
18.02.2019 10:00:00 4,9 4,2 18 10 29 16 S 40 0,0
18.02.2019 09:00:00 3,4 3,3 19 10 29 16 S 8 0,0
18.02.2019 08:00:00 2,8 2,7 16 9 27 14 S 3,0 0,0
18.02.2019 07:00:00 3,0 2,9 14 8 23 12 S 2,7 0,0
18.02.2019 06:00:00 3,0 2,9 13 7 22 12 S - 0,0
18.02.2019 05:00:00 3,3 3,0 14 8 22 12 S 1,1 0,0
18.02.2019 04:00:00 3,3 2,6 13 7 22 12 S 7 0,0
18.02.2019 03:00:00 3,0 1,8 11 6 19 10 S 21 0,0
18.02.2019 02:00:00 2,9 1,0 9 5 19 10 S 43 0,0
18.02.2019 01:00:00 2,7 0,8 12 6 17 9 S 50 0,0
18.02.2019 00:00:00 2,4 0,3 8 5 16 9 SSE 50 0,0
17.02.2019 23:00:00 2,3 -0,1 8 5 16 9 S 50 0,0
17.02.2019 22:00:00 2,4 -1,0 3 1 10 5 ESE 50 0,0
17.02.2019 21:00:00 1,9 -0,2 5 3 8 5 SE 49 0,0
17.02.2019 20:00:00 2,0 -0,1 5 3 9 5 ESE 50 0,0
17.02.2019 19:00:00 2,0 0,2 6 3 9 5 ESE 48 0,0
17.02.2019 18:00:00 2,1 0,3 4 2 4 2 E 43 0,0
17.02.2019 17:00:00 2,4 0,5 0 0 6 3 N 41 0,0
17.02.2019 16:00:00 2,6 1,1 0 0 8 4 N 40 0,0
17.02.2019 15:00:00 2,7 0,8 2 1 9 5 NNE 46 0,0
17.02.2019 14:00:00 2,9 1,1 3 2 9 5 N 34 0,0
17.02.2019 13:00:00 3,2 0,4 5 3 9 5 N 41 0,0
17.02.2019 12:00:00 3,8 0,7 5 3 10 6 WNW 38 0,0
17.02.2019 11:00:00 3,9 0,7 6 4 10 6 NW 43 0,0
17.02.2019 10:00:00 4,4 2,1 7 4 14 7 WNW 27 0,0
17.02.2019 09:00:00 4,6 2,8 9 5 16 8 NNW 22 0,0
17.02.2019 08:00:00 3,9 2,7 5 3 20 11 NW 13 0,0
17.02.2019 07:00:00 2,2 1,2 9 5 23 12 NW 12 0,0
17.02.2019 06:00:00 2,7 1,8 18 10 23 13 NNW 12 0,0
17.02.2019 05:00:00 2,8 2,2 13 7 29 15 NW 8 0,0
17.02.2019 04:00:00 3,3 2,7 18 10 30 16 WNW 9 0,0
17.02.2019 03:00:00 4,0 3,0 24 13 30 16 WNW 11 0,0
17.02.2019 02:00:00 4,4 3,2 24 13 33 18 WNW 12 0,0
17.02.2019 01:00:00 4,5 3,0 23 12 38 20 WNW 11 0,0
17.02.2019 00:00:00 4,9 3,1 26 14 49 26 WNW 13 0,0
16.02.2019 23:00:00 5,3 3,1 29 16 49 26 W 17 0,0
16.02.2019 22:00:00 6,3 2,9 35 19 54 29 W 32 0,0
16.02.2019 21:00:00 7,2 2,3 34 19 55 30 W 49 0,0
16.02.2019 20:00:00 9,2 1,8 38 20 55 30 W 50 0,0
16.02.2019 19:00:00 9,1 0,5 25 13 41 22 SW 50 0,0
16.02.2019 18:00:00 9,6 -0,3 31 17 46 25 SW 50 0,0
16.02.2019 17:00:00 9,9 -0,9 28 15 52 28 SW 50 0,0
16.02.2019 16:00:00 10,6 -1,2 34 18 52 28 SW 50 0,0
16.02.2019 15:00:00 11,7 -1,1 36 19 54 29 SW 50 0,0
16.02.2019 14:00:00 12,2 -1,7 34 19 50 27 SW 45 0,0
16.02.2019 13:00:00 12,9 -2,6 33 18 53 28 WSW 43 0,0
16.02.2019 12:00:00 12,1 -2,5 37 20 49 26 SW 45 0,0
16.02.2019 11:00:00 11,6 -3,4 34 18 48 26 SW 42 0,0
16.02.2019 10:00:00 9,8 -2,2 31 17 46 25 SW 46 0,0
16.02.2019 09:00:00 7,9 -1,6 35 19 47 25 SW 39 0,0
16.02.2019 08:00:00 7,5 -2,5 35 19 47 25 SW 47 0,0
16.02.2019 07:00:00 6,6 -3,1 32 17 49 26 SW 50 0,0
16.02.2019 06:00:00 6,2 -2,7 33 18 49 26 SW 50 0,0
16.02.2019 05:00:00 6,2 -2,9 34 19 44 24 SW 50 0,0
16.02.2019 04:00:00 5,5 -1,7 29 16 42 23 SW 46 0,0
16.02.2019 03:00:00 5,3 -1,4 32 17 42 23 SW 50 0,0
16.02.2019 02:00:00 5,2 -1,3 26 14 38 21 WSW 50 0,0
16.02.2019 01:00:00 5,3 -0,7 26 14 37 20 WSW 50 0,0
16.02.2019 00:00:00 5,3 -0,5 25 14 39 21 SW 50 0,0
15.02.2019 23:00:00 6,0 -0,7 26 14 39 21 WSW 50 0,0
15.02.2019 22:00:00 6,7 -1,0 26 14 35 19 WSW 50 0,0
15.02.2019 21:00:00 6,1 0,4 19 11 34 18 SW 50 0,0
15.02.2019 20:00:00 7,1 1,4 22 12 41 22 SW 50 0,0
15.02.2019 19:00:00 6,9 2,4 22 12 41 22 WSW 50 0,0
15.02.2019 18:00:00 7,3 2,8 23 13 36 20 WSW 50 0,0
15.02.2019 17:00:00 6,6 3,4 25 14 34 18 WSW 50 0,0
15.02.2019 16:00:00 7,4 4,5 26 14 36 20 SW 50 0,0
15.02.2019 15:00:00 8,3 4,7 24 13 40 22 WSW 50 0,0
15.02.2019 14:00:00 8,5 4,9 23 13 42 23 WSW 49 0,0
15.02.2019 13:00:00 8,1 4,9 29 16 42 23 WSW 50 0,0
15.02.2019 12:00:00 7,9 5,0 26 14 37 20 WSW 49 0,0
15.02.2019 11:00:00 7,6 4,9 25 13 37 20 WSW 45 0,0
15.02.2019 10:00:00 7,0 4,8 22 12 32 17 WSW 37 0,0
15.02.2019 09:00:00 5,5 4,0 19 10 33 18 WSW 37 0,0
15.02.2019 08:00:00 4,8 3,5 19 11 37 20 WSW 28 0,0
15.02.2019 07:00:00 4,9 3,4 23 12 37 20 WSW 27 0,0
15.02.2019 06:00:00 4,6 3,1 24 13 37 20 W 25 0,0
15.02.2019 05:00:00 4,7 3,0 26 14 37 20 W 25 0,0
15.02.2019 04:00:00 4,6 2,8 24 13 37 20 W 27 0,0
15.02.2019 03:00:00 4,5 2,7 24 13 36 19 W 25 0,0
15.02.2019 02:00:00 4,6 2,6 26 14 35 19 W 26 0,0
15.02.2019 01:00:00 4,5 2,5 19 10 39 21 WSW 23 0,0
15.02.2019 00:00:00 5,1 2,8 25 13 45 25 W 30 0,0
14.02.2019 23:00:00 5,6 2,9 30 16 55 30 W 32 0,0
14.02.2019 22:00:00 5,9 3,2 34 19 55 30 W 41 0,0
14.02.2019 21:00:00 6,2 3,4 33 18 54 29 W 48 0,0
14.02.2019 20:00:00 6,2 3,5 36 20 54 29 W 45 0,0
14.02.2019 19:00:00 6,3 3,5 37 20 52 28 W 48 0,0
14.02.2019 18:00:00 6,4 3,7 34 18 52 28 WSW 50 0,0
14.02.2019 17:00:00 6,3 3,6 22 12 39 21 WSW 50 0,0
14.02.2019 16:00:00 6,3 3,6 21 11 39 21 WSW 50 0,0
14.02.2019 15:00:00 6,5 4,2 21 11 43 23 SW 50 0,0
14.02.2019 14:00:00 6,8 4,1 25 14 43 23 WSW 50 0,0
14.02.2019 13:00:00 5,9 4,2 25 13 39 21 WSW 50 0,0
14.02.2019 12:00:00 5,4 3,9 27 14 37 20 WSW 50 0,0
14.02.2019 11:00:00 4,7 3,5 23 12 39 21 WSW 28 0,0
14.02.2019 10:00:00 3,7 3,0 22 12 39 21 WSW 16 0,0
14.02.2019 09:00:00 3,0 2,0 24 13 34 19 W 15 0,0
14.02.2019 08:00:00 2,0 -0,3 14 8 20 11 SW 14 0,0
14.02.2019 07:00:00 2,1 -0,3 12 7 21 12 SW 14 0,0
14.02.2019 06:00:00 2,2 -0,4 15 8 31 17 WSW 15 0,0
14.02.2019 05:00:00 2,6 -0,3 15 8 31 17 WSW 16 0,0
14.02.2019 04:00:00 3,4 -0,1 22 12 37 20 W 21 0,0
14.02.2019 03:00:00 3,3 0,0 18 10 37 20 W 23 0,0
14.02.2019 02:00:00 3,6 -0,1 23 12 44 24 W 30 0,0
14.02.2019 01:00:00 3,9 -0,1 26 14 46 25 W 37 0,0
14.02.2019 00:00:00 4,2 -0,2 30 16 46 25 W 41 0,0
13.02.2019 23:00:00 4,3 -0,1 30 16 43 23 W 43 0,0
13.02.2019 22:00:00 4,3 0,1 25 14 54 29 W 40 0,0
13.02.2019 21:00:00 4,7 0,5 32 18 54 29 W 50 0,0
13.02.2019 20:00:00 5,0 0,6 32 18 48 26 W 50 0,0
13.02.2019 19:00:00 5,3 0,7 31 17 46 25 W 50 0,0
13.02.2019 18:00:00 5,4 0,9 28 15 46 25 W 46 0,0
13.02.2019 17:00:00 5,4 1,1 30 16 46 25 W 50 0,0
13.02.2019 16:00:00 5,4 1,3 33 18 45 25 W 50 0,0
13.02.2019 15:00:00 5,6 1,7 30 16 48 26 W 48 0,0
13.02.2019 14:00:00 4,8 2,0 31 17 52 28 WNW 41 0,0
13.02.2019 13:00:00 4,8 2,0 40 21 54 29 WNW 35 0,0
13.02.2019 12:00:00 4,6 2,0 41 22 57 31 WNW 38 0,0
13.02.2019 11:00:00 4,9 2,3 40 22 61 33 WNW 38 0,0
13.02.2019 10:00:00 5,0 2,4 45 24 61 33 W 35 0,0
13.02.2019 09:00:00 5,1 2,5 38 20 55 30 W 38 0,0
13.02.2019 08:00:00 4,7 2,9 37 20 53 28 W 50 0,3
13.02.2019 07:00:00 4,1 2,8 32 17 47 25 WSW 42 0,0
13.02.2019 06:00:00 3,4 2,2 34 18 50 27 WSW 50 0,0
13.02.2019 05:00:00 2,0 1,4 31 17 44 24 SW 3,7 0,0
13.02.2019 04:00:00 1,5 0,8 27 15 39 21 SW 50 0,1
13.02.2019 03:00:00 0,6 0,3 22 12 36 19 SSW 3,2 0,6
13.02.2019 02:00:00 0,8 -0,1 21 11 35 19 SSW 9 0,1
13.02.2019 01:00:00 0,9 -0,4 19 10 35 19 SW 6 0,0
13.02.2019 00:00:00 1,5 -3,2 24 13 35 19 WSW 50 0,0
12.02.2019 23:00:00 1,6 -3,7 24 13 37 20 WSW 50 0,0
12.02.2019 22:00:00 1,4 -4,3 21 11 46 25 WSW 50 0,0
12.02.2019 21:00:00 1,8 -4,3 25 14 47 25 W 50 0,0
12.02.2019 20:00:00 1,9 -4,0 32 18 51 28 W 50 0,0
12.02.2019 19:00:00 2,0 -3,5 37 20 52 28 WNW 50 0,0

tt = Température de l'air
td = dewpoint
ff = Vitesse du vent
fx = gusts
dd = Direction du vent
vv = visibility
rr = Quantités de précipitations

stations d'obs. à proximité